createdAt,value
2018-12-06T00:01:15.222Z,10.90
2018-12-06T00:03:44.525Z,7.67
2018-12-06T00:06:13.667Z,10.20
2018-12-06T00:08:42.777Z,8.73
2018-12-06T00:11:11.923Z,11.87
2018-12-06T00:13:41.107Z,10.10
2018-12-06T00:16:10.268Z,7.77
2018-12-06T00:18:39.564Z,7.00
2018-12-06T00:21:08.903Z,7.30
2018-12-06T00:23:38.031Z,7.80
2018-12-06T00:26:07.167Z,8.37
2018-12-06T00:28:37.785Z,11.17
2018-12-06T00:31:07.129Z,7.50
2018-12-06T00:33:36.246Z,5.83
2018-12-06T00:36:05.391Z,7.60
2018-12-06T00:38:34.842Z,6.37
2018-12-06T00:41:04.026Z,4.80
2018-12-06T00:43:33.246Z,6.73
2018-12-06T00:46:02.395Z,6.90
2018-12-06T00:48:31.541Z,6.87
2018-12-06T00:51:00.781Z,6.20
2018-12-06T00:53:30.419Z,7.87
2018-12-06T00:55:59.519Z,8.10
2018-12-06T00:58:28.712Z,7.17
2018-12-06T01:00:57.912Z,8.73
2018-12-06T01:03:27.110Z,9.60
2018-12-06T01:05:56.393Z,8.77
2018-12-06T01:08:25.517Z,6.60
2018-12-06T01:10:54.710Z,5.63
2018-12-06T01:13:23.851Z,6.50
2018-12-06T01:15:53.024Z,10.67
2018-12-06T01:18:22.150Z,6.60
2018-12-06T01:20:51.408Z,5.87
2018-12-06T01:23:20.669Z,7.33
2018-12-06T01:25:49.970Z,7.37
2018-12-06T01:28:19.108Z,9.33
2018-12-06T01:30:48.258Z,8.37
2018-12-06T01:33:17.404Z,7.80
2018-12-06T01:35:46.512Z,6.73
2018-12-06T01:38:15.744Z,6.40
2018-12-06T01:40:44.985Z,8.80
2018-12-06T01:43:14.147Z,7.17
2018-12-06T01:45:43.336Z,8.23
2018-12-06T01:48:12.778Z,7.47
2018-12-06T01:50:41.970Z,9.40
2018-12-06T01:53:11.071Z,5.93
2018-12-06T01:55:40.261Z,7.20
2018-12-06T01:58:09.437Z,6.93
2018-12-06T02:00:38.865Z,8.10
2018-12-06T02:03:07.997Z,6.37
2018-12-06T02:05:37.131Z,6.13
2018-12-06T02:08:06.320Z,8.10
2018-12-06T02:10:35.700Z,7.50
2018-12-06T02:13:04.857Z,6.50
2018-12-06T02:15:34.049Z,8.67
2018-12-06T02:18:03.149Z,9.20
2018-12-06T02:20:32.309Z,9.00
2018-12-06T02:23:01.535Z,10.37
2018-12-06T02:25:30.659Z,8.60
2018-12-06T02:27:59.769Z,8.03
2018-12-06T02:30:28.995Z,10.00
2018-12-06T02:32:58.339Z,9.63
2018-12-06T02:35:27.514Z,7.63
2018-12-06T02:37:56.683Z,9.53
2018-12-06T02:40:25.805Z,8.53
2018-12-06T02:42:55.021Z,11.67
2018-12-06T02:45:24.329Z,11.33
2018-12-06T02:47:53.522Z,9.27
2018-12-06T02:50:22.696Z,9.73
2018-12-06T02:52:51.918Z,8.07
2018-12-06T02:55:21.185Z,9.37
2018-12-06T02:57:50.294Z,11.00
2018-12-06T03:00:19.492Z,9.27
2018-12-06T03:02:49.126Z,13.57
2018-12-06T03:05:18.260Z,8.70
2018-12-06T03:07:47.402Z,10.10
2018-12-06T03:10:16.707Z,7.33
2018-12-06T03:12:45.873Z,8.73
2018-12-06T03:15:15.172Z,9.97
2018-12-06T03:17:44.409Z,10.13
2018-12-06T03:20:13.607Z,11.63
2018-12-06T03:22:42.800Z,9.43
2018-12-06T03:25:12.000Z,9.67
2018-12-06T03:27:41.153Z,12.17
2018-12-06T03:30:10.357Z,9.27
2018-12-06T03:32:39.566Z,10.07
2018-12-06T03:35:08.889Z,8.90
2018-12-06T03:37:38.057Z,9.53
2018-12-06T03:40:07.353Z,8.53
2018-12-06T03:42:36.523Z,8.13
2018-12-06T03:45:05.817Z,11.37
2018-12-06T03:47:34.963Z,10.50
2018-12-06T03:50:05.071Z,15.47
2018-12-06T03:52:34.299Z,8.97
2018-12-06T03:55:03.710Z,10.27
2018-12-06T03:57:32.902Z,10.50
2018-12-06T04:00:02.101Z,11.80
2018-12-06T04:02:31.258Z,10.47
2018-12-06T04:05:00.740Z,10.43
2018-12-06T04:07:29.883Z,13.60
2018-12-06T04:09:59.095Z,13.73
2018-12-06T04:12:28.251Z,16.53
2018-12-06T04:14:57.507Z,13.87
2018-12-06T04:17:26.693Z,13.13
2018-12-06T04:19:55.837Z,13.27
2018-12-06T04:22:25.082Z,15.07
2018-12-06T04:24:54.341Z,14.70
2018-12-06T04:27:23.555Z,11.53
2018-12-06T04:29:52.868Z,11.73
2018-12-06T04:32:22.055Z,12.37
2018-12-06T04:34:51.222Z,16.33
2018-12-06T04:37:20.485Z,15.30
2018-12-06T04:39:49.650Z,12.70
2018-12-06T04:42:18.880Z,14.57
2018-12-06T04:44:48.179Z,16.03
2018-12-06T04:47:17.318Z,17.90
2018-12-06T04:49:46.439Z,15.47
2018-12-06T04:52:15.599Z,13.43
2018-12-06T04:54:44.856Z,14.00
2018-12-06T04:57:14.215Z,15.37
2018-12-06T04:59:43.425Z,17.23
2018-12-06T05:02:12.888Z,15.53
2018-12-06T05:04:42.125Z,19.67
2018-12-06T05:07:11.289Z,17.47
2018-12-06T05:09:40.452Z,19.90
2018-12-06T05:12:09.602Z,22.90
2018-12-06T05:14:38.744Z,21.40
2018-12-06T05:17:07.922Z,17.87
2018-12-06T05:19:37.083Z,16.23
2018-12-06T05:22:06.254Z,21.43
2018-12-06T05:24:35.480Z,22.43
2018-12-06T05:27:04.951Z,22.83
2018-12-06T05:29:34.089Z,26.97
2018-12-06T05:32:03.434Z,23.23
2018-12-06T05:34:32.619Z,23.43
2018-12-06T05:37:02.363Z,27.70
2018-12-06T05:39:31.510Z,22.53
2018-12-06T05:42:00.771Z,22.77
2018-12-06T05:44:29.931Z,24.77
2018-12-06T05:46:59.227Z,22.60
2018-12-06T05:49:28.623Z,29.50
2018-12-06T05:51:57.827Z,21.00
2018-12-06T05:54:27.048Z,27.67
2018-12-06T05:56:56.323Z,25.27
2018-12-06T05:59:25.493Z,21.40
2018-12-06T06:01:54.877Z,23.00
2018-12-06T06:04:24.017Z,21.97
2018-12-06T06:06:53.660Z,24.07
2018-12-06T06:09:22.881Z,25.90
2018-12-06T06:11:52.012Z,29.10
2018-12-06T06:14:21.172Z,28.83
2018-12-06T06:16:50.431Z,31.43
2018-12-06T06:19:19.549Z,29.13
2018-12-06T06:21:48.752Z,27.03
2018-12-06T06:24:17.909Z,26.33
2018-12-06T06:26:47.113Z,27.10
2018-12-06T06:29:16.344Z,23.80
2018-12-06T06:31:45.501Z,23.60
2018-12-06T06:34:14.761Z,24.23
2018-12-06T06:36:43.976Z,27.63
2018-12-06T06:39:13.228Z,27.70
2018-12-06T06:41:42.389Z,24.67
2018-12-06T06:44:11.575Z,21.83
2018-12-06T06:46:40.740Z,16.30
2018-12-06T06:49:13.743Z,19.50
2018-12-06T06:51:41.197Z,19.33
2018-12-06T06:54:10.357Z,21.73
2018-12-06T06:56:39.502Z,23.83
2018-12-06T06:59:08.660Z,21.17
2018-12-06T07:01:37.832Z,17.93
2018-12-06T07:04:11.143Z,18.73
2018-12-06T07:06:40.289Z,24.20
2018-12-06T07:09:09.509Z,19.87
2018-12-06T07:11:38.690Z,25.60
2018-12-06T07:14:07.889Z,21.27
2018-12-06T07:16:37.446Z,18.97
2018-12-06T07:19:06.986Z,16.53
2018-12-06T07:21:36.138Z,15.80
2018-12-06T07:24:05.367Z,20.40
2018-12-06T07:26:34.643Z,19.53
2018-12-06T07:29:03.960Z,23.87
2018-12-06T07:31:33.157Z,18.53
2018-12-06T07:34:02.335Z,23.43
2018-12-06T07:36:31.511Z,25.47
2018-12-06T07:39:00.791Z,23.67
2018-12-06T07:41:29.947Z,22.30
2018-12-06T07:43:59.148Z,19.17
2018-12-06T07:46:28.746Z,16.40
2018-12-06T07:48:57.866Z,17.07
2018-12-06T07:51:32.515Z,24.00
2018-12-06T07:54:01.696Z,17.37
2018-12-06T07:56:30.975Z,43.10
2018-12-06T07:59:00.151Z,18.07
2018-12-06T08:01:29.283Z,24.30
2018-12-06T08:03:58.555Z,14.93
2018-12-06T08:06:27.841Z,16.10
2018-12-06T08:08:56.989Z,17.57
2018-12-06T08:11:26.162Z,29.13
2018-12-06T08:13:55.459Z,16.00
2018-12-06T08:16:24.602Z,19.77
2018-12-06T08:18:54.063Z,19.40
2018-12-06T08:21:23.533Z,20.63
2018-12-06T08:23:52.767Z,19.87
2018-12-06T08:26:21.925Z,20.10
2018-12-06T08:28:51.165Z,18.93
2018-12-06T08:31:20.357Z,21.03
2018-12-06T08:33:49.657Z,19.63
2018-12-06T08:36:18.924Z,17.57
2018-12-06T08:38:48.235Z,15.80
2018-12-06T08:41:17.423Z,16.60
2018-12-06T08:43:46.732Z,17.93
2018-12-06T08:46:15.898Z,12.67
2018-12-06T08:48:45.945Z,14.03
2018-12-06T08:51:15.134Z,21.17
2018-12-06T08:53:44.358Z,19.67
2018-12-06T08:56:13.534Z,22.30
2018-12-06T08:58:42.671Z,14.23
2018-12-06T09:01:11.935Z,19.37
2018-12-06T09:03:41.161Z,19.60
2018-12-06T09:06:10.460Z,17.90
2018-12-06T09:08:39.636Z,16.27
2018-12-06T09:11:08.808Z,21.33
2018-12-06T09:13:38.704Z,15.40
2018-12-06T09:16:08.161Z,19.10
2018-12-06T09:18:37.365Z,18.77
2018-12-06T09:21:06.669Z,19.17
2018-12-06T09:23:35.940Z,19.20
2018-12-06T09:26:05.152Z,23.40
2018-12-06T09:28:36.002Z,20.27
2018-12-06T09:31:09.092Z,19.77
2018-12-06T09:33:46.180Z,20.60
2018-12-06T09:36:15.372Z,19.57
2018-12-06T09:38:44.569Z,19.93
2018-12-06T09:41:13.689Z,19.83
2018-12-06T09:43:42.864Z,21.97
2018-12-06T09:46:12.046Z,21.40
2018-12-06T09:48:41.341Z,19.50
2018-12-06T09:51:10.578Z,21.07
2018-12-06T09:53:39.759Z,21.90
2018-12-06T09:56:08.912Z,20.97
2018-12-06T09:58:38.140Z,20.47
2018-12-06T10:01:08.102Z,21.87
2018-12-06T10:03:37.368Z,22.63
2018-12-06T10:06:06.673Z,20.87
2018-12-06T10:08:35.824Z,22.07
2018-12-06T10:11:05.064Z,21.87
2018-12-06T10:13:34.372Z,21.60
2018-12-06T10:16:03.675Z,17.83
2018-12-06T10:18:32.965Z,16.13
2018-12-06T10:21:02.366Z,21.20
2018-12-06T10:23:32.587Z,23.63
2018-12-06T10:26:01.789Z,22.27
2018-12-06T10:28:30.958Z,22.03
2018-12-06T10:31:00.130Z,23.83
2018-12-06T10:33:29.389Z,21.67
2018-12-06T10:36:36.266Z,24.33
2018-12-06T10:39:07.306Z,19.60
2018-12-06T10:41:36.558Z,20.43
2018-12-06T10:44:05.708Z,20.13
2018-12-06T10:46:34.861Z,21.93
2018-12-06T10:49:04.051Z,21.67
2018-12-06T10:51:40.736Z,23.23
2018-12-06T10:54:09.969Z,28.50
2018-12-06T10:56:40.672Z,26.60
2018-12-06T10:59:09.875Z,31.97
2018-12-06T11:01:44.791Z,31.90
2018-12-06T11:04:13.991Z,34.20
2018-12-06T11:06:43.115Z,29.93
2018-12-06T11:09:12.396Z,30.13
2018-12-06T11:11:41.796Z,29.60
2018-12-06T11:14:10.936Z,29.50
2018-12-06T11:16:40.223Z,27.30
2018-12-06T11:19:09.422Z,27.10
2018-12-06T11:21:38.600Z,23.73
2018-12-06T11:24:07.778Z,25.00
2018-12-06T11:26:36.963Z,23.17
2018-12-06T11:29:06.171Z,25.90
2018-12-06T11:31:35.764Z,21.37
2018-12-06T11:34:04.980Z,24.27
2018-12-06T11:36:34.218Z,25.53
2018-12-06T11:39:05.519Z,21.83
2018-12-06T11:41:43.848Z,21.67
2018-12-06T11:44:13.077Z,22.37
2018-12-06T11:46:42.256Z,22.37
2018-12-06T11:49:11.380Z,23.70
2018-12-06T11:51:40.630Z,22.50
2018-12-06T11:54:09.974Z,24.87
2018-12-06T11:56:39.936Z,22.97
2018-12-06T11:59:09.176Z,23.83
2018-12-06T12:01:38.377Z,23.93
2018-12-06T12:04:07.516Z,25.97
2018-12-06T12:06:36.773Z,22.53
2018-12-06T12:09:07.201Z,21.63
2018-12-06T12:11:36.400Z,24.40
2018-12-06T12:14:05.688Z,23.07
2018-12-06T12:16:34.894Z,27.00
2018-12-06T12:19:04.434Z,31.17
2018-12-06T12:21:33.700Z,27.90
2018-12-06T12:24:03.304Z,23.83
2018-12-06T12:26:32.919Z,23.60
2018-12-06T12:29:02.215Z,21.73
2018-12-06T12:31:31.467Z,21.77
2018-12-06T12:34:00.620Z,30.70
2018-12-06T12:36:29.785Z,29.40
2018-12-06T12:38:58.933Z,23.20
2018-12-06T12:41:32.082Z,21.33
2018-12-06T12:44:01.302Z,21.90
2018-12-06T12:46:31.286Z,28.20
2018-12-06T12:49:00.614Z,24.23
2018-12-06T12:51:29.921Z,22.53
2018-12-06T12:53:59.118Z,23.03
2018-12-06T12:56:28.251Z,21.67
2018-12-06T12:58:57.466Z,21.43
2018-12-06T13:01:26.651Z,19.87
2018-12-06T13:03:55.914Z,20.87
2018-12-06T13:06:25.037Z,19.57
2018-12-06T13:08:54.376Z,21.30
2018-12-06T13:11:23.671Z,18.37
2018-12-06T13:13:53.055Z,17.60
2018-12-06T13:16:22.423Z,17.23
2018-12-06T13:18:51.817Z,21.60
2018-12-06T13:21:21.041Z,15.60
2018-12-06T13:23:50.535Z,14.70
2018-12-06T13:26:20.049Z,15.80
2018-12-06T13:28:49.542Z,12.50
2018-12-06T13:31:18.939Z,11.43
2018-12-06T13:33:48.249Z,9.77
2018-12-06T13:36:17.693Z,10.33
2018-12-06T13:38:46.880Z,11.47
2018-12-06T13:41:16.564Z,11.33
2018-12-06T13:43:45.745Z,11.27
2018-12-06T13:46:15.046Z,9.27
2018-12-06T13:48:44.419Z,9.23
2018-12-06T13:51:13.545Z,8.83
2018-12-06T13:53:42.952Z,8.83
2018-12-06T13:56:14.157Z,9.73
2018-12-06T13:58:43.594Z,9.57
2018-12-06T14:01:13.115Z,9.67
2018-12-06T14:03:42.631Z,12.03
2018-12-06T14:06:11.819Z,9.33
2018-12-06T14:08:41.013Z,9.93
2018-12-06T14:11:10.390Z,8.87
2018-12-06T14:13:39.826Z,9.03
2018-12-06T14:16:10.628Z,11.10
2018-12-06T14:18:40.324Z,8.87
2018-12-06T14:21:09.678Z,9.50
2018-12-06T14:23:39.099Z,9.53
2018-12-06T14:26:08.364Z,9.93
2018-12-06T14:28:44.436Z,9.30
2018-12-06T14:31:16.046Z,9.83
2018-12-06T14:33:45.355Z,9.77
2018-12-06T14:36:15.742Z,9.50
2018-12-06T14:38:44.854Z,9.00
2018-12-06T14:41:14.031Z,8.70
2018-12-06T14:43:43.193Z,9.80
2018-12-06T14:46:12.495Z,8.73
2018-12-06T14:48:41.646Z,8.83
2018-12-06T14:51:10.875Z,8.67
2018-12-06T14:53:40.189Z,9.10
2018-12-06T14:56:09.313Z,8.07
2018-12-06T14:58:38.421Z,8.97
2018-12-06T15:01:07.789Z,10.23
2018-12-06T15:03:36.979Z,8.03
2018-12-06T15:06:06.146Z,9.17
2018-12-06T15:08:35.343Z,6.10
2018-12-06T15:11:04.540Z,6.90
2018-12-06T15:13:33.772Z,6.90
2018-12-06T15:16:03.079Z,6.40
2018-12-06T15:18:32.369Z,5.33
2018-12-06T15:21:01.488Z,4.73
2018-12-06T15:23:30.669Z,5.17
2018-12-06T15:25:59.799Z,4.80
2018-12-06T15:28:29.007Z,4.53
2018-12-06T15:30:58.621Z,4.50
2018-12-06T15:33:27.875Z,4.50
2018-12-06T15:35:57.382Z,4.33
2018-12-06T15:38:26.907Z,4.27
2018-12-06T15:40:56.187Z,4.50
2018-12-06T15:43:25.292Z,4.60
2018-12-06T15:45:54.509Z,4.63
2018-12-06T15:48:23.666Z,5.60
2018-12-06T15:50:52.800Z,4.90
2018-12-06T15:53:21.968Z,4.73
2018-12-06T15:55:51.138Z,7.40
2018-12-06T15:58:20.373Z,5.40
2018-12-06T16:00:49.585Z,5.27
2018-12-06T16:03:18.760Z,5.20
2018-12-06T16:05:48.530Z,5.33
2018-12-06T16:08:18.082Z,5.70
2018-12-06T16:10:47.665Z,5.43
2018-12-06T16:13:16.912Z,7.30
2018-12-06T16:15:46.099Z,6.00
2018-12-06T16:18:15.293Z,6.43
2018-12-06T16:20:44.494Z,6.23
2018-12-06T16:23:13.697Z,6.20
2018-12-06T16:25:42.891Z,6.90
2018-12-06T16:28:12.034Z,6.37
2018-12-06T16:30:41.289Z,5.70
2018-12-06T16:33:10.696Z,6.37
2018-12-06T16:35:39.992Z,6.00
2018-12-06T16:38:09.187Z,6.70
2018-12-06T16:40:38.491Z,7.50
2018-12-06T16:43:07.791Z,6.47
2018-12-06T16:45:37.214Z,6.73
2018-12-06T16:48:07.314Z,6.47
2018-12-06T16:50:36.902Z,10.60
2018-12-06T16:53:06.221Z,6.20
2018-12-06T16:55:38.381Z,6.63
2018-12-06T16:58:07.889Z,7.87
2018-12-06T17:00:37.199Z,7.33
2018-12-06T17:03:06.459Z,8.90
2018-12-06T17:05:35.599Z,10.50
2018-12-06T17:08:04.855Z,10.13
2018-12-06T17:10:34.923Z,7.50
2018-12-06T17:13:04.205Z,8.17
2018-12-06T17:15:33.405Z,8.23
2018-12-06T17:18:02.601Z,8.40
2018-12-06T17:20:31.906Z,8.00
2018-12-06T17:23:01.104Z,8.83
2018-12-06T17:25:30.434Z,8.53
2018-12-06T17:27:59.699Z,9.60
2018-12-06T17:30:28.931Z,8.77
2018-12-06T17:32:58.200Z,10.37
2018-12-06T17:35:27.495Z,10.17
2018-12-06T17:37:56.740Z,11.07
2018-12-06T17:40:25.984Z,10.67
2018-12-06T17:42:55.434Z,11.43
2018-12-06T17:45:24.621Z,10.37
2018-12-06T17:47:53.935Z,11.00
2018-12-06T17:50:23.144Z,11.13
2018-12-06T17:52:52.494Z,11.27
2018-12-06T17:55:21.706Z,17.40
2018-12-06T17:57:50.887Z,18.27
2018-12-06T18:00:20.009Z,11.07
2018-12-06T18:02:49.678Z,12.33
2018-12-06T18:05:19.463Z,11.00
2018-12-06T18:07:48.669Z,19.03
2018-12-06T18:10:18.228Z,11.50
2018-12-06T18:12:47.530Z,11.10
2018-12-06T18:15:16.840Z,10.93
2018-12-06T18:17:46.122Z,12.27
2018-12-06T18:20:15.429Z,11.40
2018-12-06T18:22:44.651Z,10.40
2018-12-06T18:25:13.905Z,11.33
2018-12-06T18:27:43.124Z,11.77
2018-12-06T18:30:12.337Z,12.87
2018-12-06T18:32:41.622Z,15.43
2018-12-06T18:35:11.001Z,11.77
2018-12-06T18:37:40.219Z,11.80
2018-12-06T18:40:09.415Z,12.77
2018-12-06T18:42:38.723Z,13.47
2018-12-06T18:45:13.913Z,13.60
2018-12-06T18:47:43.133Z,11.97
2018-12-06T18:50:12.787Z,14.10
2018-12-06T18:52:42.275Z,12.77
2018-12-06T18:55:11.477Z,13.53
2018-12-06T18:57:40.874Z,14.20
2018-12-06T19:00:10.534Z,11.73
2018-12-06T19:02:39.954Z,14.43
2018-12-06T19:05:11.316Z,15.53
2018-12-06T19:07:40.455Z,15.43
2018-12-06T19:10:09.819Z,14.93
2018-12-06T19:12:40.270Z,13.10
2018-12-06T19:15:09.578Z,11.47
2018-12-06T19:17:38.999Z,11.67
2018-12-06T19:20:08.577Z,13.13
2018-12-06T19:22:38.664Z,11.57
2018-12-06T19:25:10.841Z,11.30
2018-12-06T19:27:40.165Z,14.80
2018-12-06T19:30:09.771Z,13.03
2018-12-06T19:32:39.142Z,12.23
2018-12-06T19:35:08.592Z,11.83
2018-12-06T19:37:37.977Z,11.47
2018-12-06T19:40:08.368Z,12.60
2018-12-06T19:42:38.991Z,13.10
2018-12-06T19:45:08.729Z,14.77
2018-12-06T19:47:38.163Z,11.40
2018-12-06T19:50:07.659Z,11.93
2018-12-06T19:52:36.961Z,12.77
2018-12-06T19:55:06.564Z,12.33
2018-12-06T19:57:38.227Z,12.83
2018-12-06T20:00:08.507Z,13.03
2018-12-06T20:02:38.471Z,13.17
2018-12-06T20:05:08.017Z,11.70
2018-12-06T20:07:37.370Z,12.13
2018-12-06T20:10:07.572Z,13.20
2018-12-06T20:12:36.794Z,12.83
2018-12-06T20:15:06.344Z,14.37
2018-12-06T20:17:35.874Z,12.47
2018-12-06T20:20:11.965Z,12.20
2018-12-06T20:22:41.257Z,12.27
2018-12-06T20:25:10.556Z,13.17
2018-12-06T20:27:39.836Z,12.53
2018-12-06T20:30:09.258Z,12.97
2018-12-06T20:32:38.754Z,12.57
2018-12-06T20:35:08.044Z,12.80
2018-12-06T20:37:39.544Z,11.93
2018-12-06T20:40:12.734Z,16.53
2018-12-06T20:42:42.297Z,14.13
2018-12-06T20:45:11.621Z,12.27
2018-12-06T20:47:40.946Z,14.63
2018-12-06T20:50:10.205Z,12.90
2018-12-06T20:52:39.376Z,13.73
2018-12-06T20:55:13.192Z,11.70
2018-12-06T20:57:42.650Z,13.60
2018-12-06T21:00:12.038Z,12.13
2018-12-06T21:02:41.418Z,11.53
2018-12-06T21:05:10.687Z,12.57
2018-12-06T21:07:39.897Z,12.07
2018-12-06T21:10:09.186Z,12.47
2018-12-06T21:12:38.417Z,12.77
2018-12-06T21:15:07.768Z,13.83
2018-12-06T21:17:37.216Z,11.93
2018-12-06T21:20:06.902Z,11.10
2018-12-06T21:22:36.185Z,10.27
2018-12-06T21:25:05.674Z,11.37
2018-12-06T21:27:35.318Z,8.77
2018-12-06T21:30:05.298Z,8.10
2018-12-06T21:32:34.632Z,8.83
2018-12-06T21:35:03.933Z,10.50
2018-12-06T21:37:33.237Z,9.90
2018-12-06T21:40:02.534Z,7.77
2018-12-06T21:42:31.729Z,9.00
2018-12-06T21:45:00.903Z,8.50
2018-12-06T21:47:30.079Z,8.03
2018-12-06T21:49:59.222Z,8.37
2018-12-06T21:52:28.420Z,9.83
2018-12-06T21:54:57.890Z,8.73
2018-12-06T21:57:27.099Z,9.40
2018-12-06T21:59:56.284Z,10.67
2018-12-06T22:02:26.062Z,8.17
2018-12-06T22:04:55.226Z,9.60
2018-12-06T22:07:24.371Z,8.27
2018-12-06T22:09:53.623Z,7.83
2018-12-06T22:12:22.829Z,8.27
2018-12-06T22:14:52.111Z,9.40
2018-12-06T22:17:21.556Z,7.20
2018-12-06T22:19:50.828Z,7.60
2018-12-06T22:22:20.001Z,7.87
2018-12-06T22:24:49.200Z,7.40
2018-12-06T22:27:18.402Z,8.03
2018-12-06T22:29:47.726Z,8.50
2018-12-06T22:32:16.839Z,7.70
2018-12-06T22:34:46.163Z,7.23
2018-12-06T22:37:15.476Z,8.37
2018-12-06T22:39:44.920Z,7.07
2018-12-06T22:42:14.060Z,8.80
2018-12-06T22:44:43.342Z,5.63
2018-12-06T22:47:12.648Z,6.57
2018-12-06T22:49:41.775Z,6.60
2018-12-06T22:52:10.914Z,6.80
2018-12-06T22:54:40.047Z,6.03
2018-12-06T22:57:09.210Z,5.70
2018-12-06T22:59:38.378Z,9.97
2018-12-06T23:02:07.556Z,5.80
2018-12-06T23:04:36.667Z,5.90
2018-12-06T23:07:06.009Z,5.80
2018-12-06T23:09:35.156Z,6.50
2018-12-06T23:12:04.362Z,9.17
2018-12-06T23:14:33.498Z,5.90
2018-12-06T23:17:02.714Z,7.13
2018-12-06T23:19:31.941Z,7.03
2018-12-06T23:22:01.105Z,6.43
2018-12-06T23:24:30.472Z,8.47
2018-12-06T23:26:59.743Z,7.83
2018-12-06T23:29:28.872Z,7.50
2018-12-06T23:31:58.176Z,5.90
2018-12-06T23:34:27.303Z,5.10
2018-12-06T23:36:56.452Z,7.93
2018-12-06T23:39:25.616Z,7.60
2018-12-06T23:41:54.967Z,5.60
2018-12-06T23:44:24.108Z,6.73
2018-12-06T23:46:53.464Z,5.30
2018-12-06T23:49:22.876Z,5.47
2018-12-06T23:51:52.073Z,5.93
2018-12-06T23:54:21.366Z,5.20
2018-12-06T23:56:50.481Z,5.90
2018-12-06T23:59:19.619Z,5.23
